Time;durP1;ratioP1;P1;durP2;ratioP2;P2;SDS_P1;SDS_P2;PMS_P1;PMS_P2;Temp;Humidity;BMP_temperature;BMP_pressure;BME280_temperature;BME280_humidity;BME280_pressure;Samples;Min_cycle;Max_cycle;Signal;HPM_P1;HPM_P2
2024/01/01 00:00:04;;;;;;;5.63;3.53;;;;;3.40;93159.00;;;;7373169;19;20828;-79
2024/01/01 00:02:36;;;;;;;7.50;3.33;;;;;3.50;93166.00;;;;7370273;19;20137;-76
2024/01/01 00:05:11;;;;;;;7.47;2.87;;;;;3.40;93168.00;;;;7372970;19;20128;-76
2024/01/01 00:07:52;;;;;;;10.33;2.97;;;;;3.50;93173.00;;;;7373080;19;20152;-76
2024/01/01 00:10:26;;;;;;;5.80;2.73;;;;;3.30;93173.00;;;;7371718;19;20151;-77
2024/01/01 00:13:02;;;;;;;7.37;2.40;;;;;3.40;93168.00;;;;7370258;19;20132;-76
2024/01/01 00:15:31;;;;;;;7.73;2.50;;;;;3.40;93164.00;;;;7371492;19;20145;-76
2024/01/01 00:18:08;;;;;;;7.37;2.23;;;;;3.40;93153.00;;;;7371495;19;20620;-78
2024/01/01 00:20:36;;;;;;;8.33;2.90;;;;;3.30;93153.00;;;;7373475;19;20148;-77
2024/01/01 00:23:12;;;;;;;4.70;2.17;;;;;3.30;93153.00;;;;7387646;19;20606;-75
2024/01/01 00:25:53;;;;;;;7.07;2.43;;;;;3.20;93139.00;;;;7400936;19;20132;-78
2024/01/01 00:28:29;;;;;;;6.57;2.37;;;;;3.10;93146.00;;;;7401143;19;20501;-76
2024/01/01 00:31:02;;;;;;;6.43;2.40;;;;;3.20;93138.00;;;;7400351;19;20136;-74
2024/01/01 00:33:35;;;;;;;4.73;2.40;;;;;3.20;93144.00;;;;7399246;19;20136;-76
2024/01/01 00:36:08;;;;;;;6.80;2.57;;;;;3.30;93144.00;;;;7399271;19;20228;-77
2024/01/01 00:38:50;;;;;;;5.57;2.57;;;;;3.30;93159.00;;;;7399953;19;20124;-76
2024/01/01 00:41:18;;;;;;;8.53;2.27;;;;;3.30;93157.00;;;;7399980;19;20733;-76
2024/01/01 00:43:52;;;;;;;4.20;2.30;;;;;3.10;93146.00;;;;7397839;19;20140;-74
2024/01/01 00:46:26;;;;;;;2.97;2.20;;;;;3.00;93154.00;;;;7401261;19;20196;-76
2024/01/01 00:49:09;;;;;;;4.60;1.93;;;;;3.20;93160.00;;;;7398880;19;20139;-77
2024/01/01 00:51:43;;;;;;;4.70;2.30;;;;;3.10;93152.00;;;;7398499;19;20505;-76
2024/01/01 00:54:21;;;;;;;3.67;1.90;;;;;3.00;93155.00;;;;7398266;19;20148;-75
2024/01/01 00:56:49;;;;;;;5.13;2.13;;;;;3.20;93147.00;;;;7398541;19;20633;-78
2024/01/01 00:59:24;;;;;;;5.77;2.20;;;;;3.00;93162.00;;;;7398716;19;20679;-74
2024/01/01 01:01:58;;;;;;;5.00;2.50;;;;;3.00;93167.00;;;;7398416;19;20173;-77
2024/01/01 01:04:32;;;;;;;5.63;2.30;;;;;3.00;93170.00;;;;7399669;19;20137;-76
2024/01/01 01:07:18;;;;;;;17.40;6.90;;;;;2.90;93169.00;;;;7403139;19;20135;-75
2024/01/01 01:09:46;;;;;;;5.60;2.20;;;;;2.90;93169.00;;;;7401313;19;20498;-74
2024/01/01 01:12:20;;;;;;;9.20;2.33;;;;;2.80;93175.00;;;;7399201;19;20638;-75
2024/01/01 01:14:53;;;;;;;8.83;2.87;;;;;2.80;93170.00;;;;7402726;19;20144;-74
2024/01/01 01:17:29;;;;;;;7.77;2.40;;;;;2.70;93165.00;;;;7402590;19;20144;-76
2024/01/01 01:19:59;;;;;;;5.47;1.90;;;;;2.80;93176.00;;;;7403053;19;20478;-74
2024/01/01 01:22:34;;;;;;;4.17;2.27;;;;;2.70;93172.00;;;;7403215;19;20596;-74
2024/01/01 01:25:02;;;;;;;8.27;2.53;;;;;2.70;93166.00;;;;7403999;19;20137;-76
2024/01/01 01:27:42;;;;;;;5.63;2.23;;;;;2.60;93168.00;;;;7401872;19;20136;-79
2024/01/01 01:30:16;;;;;;;4.43;2.10;;;;;2.70;93171.00;;;;7402931;19;20149;-74
2024/01/01 01:32:44;;;;;;;3.57;2.23;;;;;2.70;93173.00;;;;7401946;19;20148;-75
2024/01/01 01:35:18;;;;;;;2.87;1.87;;;;;2.60;93176.00;;;;7399755;19;20120;-74
2024/01/01 01:37:45;;;;;;;3.87;2.00;;;;;2.60;93176.00;;;;7403359;19;20471;-74
2024/01/01 01:40:22;;;;;;;4.60;1.83;;;;;2.70;93166.00;;;;7398057;19;20144;-80
2024/01/01 01:42:50;;;;;;;2.93;2.00;;;;;2.80;93180.00;;;;7392970;19;20169;-74
2024/01/01 01:45:25;;;;;;;3.33;2.10;;;;;2.50;93175.00;;;;7403113;19;20128;-74
2024/01/01 01:48:00;;;;;;;4.53;2.30;;;;;2.60;93164.00;;;;7401685;19;20182;-74
2024/01/01 01:50:40;;;;;;;4.80;2.17;;;;;2.70;93169.00;;;;7402437;19;20133;-74
2024/01/01 01:53:14;;;;;;;6.37;1.80;;;;;2.70;93154.00;;;;7403202;19;20595;-75
2024/01/01 01:55:50;;;;;;;3.03;1.80;;;;;2.50;93139.00;;;;7401921;19;20476;-74
2024/01/01 01:58:18;;;;;;;5.00;2.00;;;;;2.70;93139.00;;;;7403099;19;20147;-74
2024/01/01 02:00:54;;;;;;;3.57;2.00;;;;;2.70;93138.00;;;;7401407;19;20152;-74
2024/01/01 02:03:30;;;;;;;5.37;2.00;;;;;2.70;93136.00;;;;7399718;19;20201;-74
2024/01/01 02:06:04;;;;;;;3.07;1.80;;;;;2.60;93146.00;;;;7402787;19;20481;-74
2024/01/01 02:08:41;;;;;;;5.53;1.63;;;;;2.60;93152.00;;;;7400791;19;20588;-75
2024/01/01 02:11:15;;;;;;;4.87;1.63;;;;;2.70;93138.00;;;;7400227;19;20137;-76
2024/01/01 02:13:50;;;;;;;5.50;1.50;;;;;2.70;93140.00;;;;7403204;19;20137;-75
2024/01/01 02:16:25;;;;;;;8.70;2.07;;;;;2.80;93145.00;;;;7400567;19;20162;-74
2024/01/01 02:18:59;;;;;;;3.70;1.63;;;;;2.80;93139.00;;;;7400636;19;20612;-77
2024/01/01 02:21:27;;;;;;;4.17;1.90;;;;;2.80;93146.00;;;;7400939;19;20680;-78
2024/01/01 02:24:04;;;;;;;6.37;1.60;;;;;2.70;93141.00;;;;7398034;19;20203;-79
2024/01/01 02:26:39;;;;;;;3.67;1.70;;;;;2.70;93145.00;;;;7400478;19;20140;-77
2024/01/01 02:29:14;;;;;;;5.37;1.90;;;;;2.80;93153.00;;;;7401133;19;20196;-77
2024/01/01 02:31:42;;;;;;;5.47;1.70;;;;;2.70;93135.00;;;;7399863;19;20621;-79
2024/01/01 02:34:19;;;;;;;4.77;1.90;;;;;2.70;93138.00;;;;7400302;19;20131;-75
2024/01/01 02:36:48;;;;;;;7.07;1.50;;;;;2.50;93139.00;;;;7399051;19;20504;-77
2024/01/01 02:39:22;;;;;;;7.83;1.90;;;;;2.70;93144.00;;;;7400256;19;20120;-76
2024/01/01 02:41:57;;;;;;;4.93;1.40;;;;;2.70;93143.00;;;;7401561;19;20169;-77
2024/01/01 02:44:31;;;;;;;3.67;1.37;;;;;2.70;93144.00;;;;7401223;19;20146;-77
2024/01/01 02:47:11;;;;;;;3.23;1.60;;;;;2.60;93140.00;;;;7400943;19;20508;-77
2024/01/01 02:49:46;;;;;;;5.43;1.30;;;;;2.40;93151.00;;;;7401876;19;20129;-76
2024/01/01 02:52:25;;;;;;;5.67;1.80;;;;;2.40;93153.00;;;;7399741;19;20144;-76
2024/01/01 02:54:59;;;;;;;7.60;2.00;;;;;2.30;93153.00;;;;7400184;19;20151;-76
2024/01/01 02:57:26;;;;;;;4.77;1.47;;;;;2.40;93151.00;;;;7399891;19;20616;-76
2024/01/01 02:59:54;;;;;;;5.63;1.63;;;;;2.50;93151.00;;;;7395640;19;20161;-79
2024/01/01 03:02:31;;;;;;;5.43;1.57;;;;;2.60;93161.00;;;;7398963;19;20156;-77
2024/01/01 03:05:07;;;;;;;4.33;1.63;;;;;2.70;93160.00;;;;7398588;19;20155;-76
2024/01/01 03:07:35;;;;;;;2.93;1.57;;;;;2.80;93164.00;;;;7399397;19;20145;-77
2024/01/01 03:10:13;;;;;;;5.77;1.60;;;;;2.80;93158.00;;;;7400081;19;20592;-77
2024/01/01 03:12:41;;;;;;;5.90;1.47;;;;;2.90;93166.00;;;;7399167;19;20477;-76
2024/01/01 03:15:15;;;;;;;4.83;1.70;;;;;2.80;93151.00;;;;7401301;19;20131;-79
2024/01/01 03:17:45;;;;;;;6.73;1.67;;;;;2.80;93155.00;;;;7400699;19;20196;-77
2024/01/01 03:20:19;;;;;;;4.07;1.93;;;;;2.90;93157.00;;;;7398850;19;20188;-77
2024/01/01 03:22:48;;;;;;;5.70;1.70;;;;;2.90;93155.00;;;;7396860;19;20149;-75
2024/01/01 03:25:23;;;;;;;5.47;1.93;;;;;3.00;93172.00;;;;7398278;19;20137;-76
2024/01/01 03:27:57;;;;;;;7.63;1.60;;;;;3.00;93159.00;;;;7398463;19;20121;-77
2024/01/01 03:30:39;;;;;;;6.30;1.50;;;;;3.00;93168.00;;;;7405235;19;20192;-88
2024/01/01 03:33:07;;;;;;;5.83;1.90;;;;;3.20;93174.00;;;;7402641;19;20663;-88
2024/01/01 03:35:42;;;;;;;3.83;1.50;;;;;3.10;93176.00;;;;7401943;19;20148;-88
2024/01/01 03:38:16;;;;;;;5.60;1.50;;;;;2.90;93174.00;;;;7400944;19;20145;-86
2024/01/01 03:40:50;;;;;;;5.57;1.30;;;;;3.00;93191.00;;;;7400748;19;20551;-89
2024/01/01 03:43:18;;;;;;;11.13;2.03;;;;;3.10;93187.00;;;;7402109;19;20596;-89
2024/01/01 03:45:53;;;;;;;6.97;1.93;;;;;3.10;93186.00;;;;7399228;19;20144;-88
2024/01/01 03:48:27;;;;;;;8.53;1.87;;;;;2.90;93179.00;;;;7402553;19;20149;-89
2024/01/01 03:51:02;;;;;;;7.63;1.60;;;;;3.00;93185.00;;;;7401584;19;20149;-91
2024/01/01 03:53:30;;;;;;;11.63;1.90;;;;;3.00;93184.00;;;;7401275;19;20149;-86
2024/01/01 03:56:04;;;;;;;6.00;1.70;;;;;3.00;93197.00;;;;7401148;19;20132;-88
2024/01/01 03:58:38;;;;;;;7.70;1.67;;;;;2.80;93191.00;;;;7399692;19;20139;-86
2024/01/01 04:01:15;;;;;;;9.47;1.87;;;;;3.00;93195.00;;;;7398993;19;20200;-88
2024/01/01 04:03:44;;;;;;;4.93;1.50;;;;;3.10;93199.00;;;;7399569;19;20151;-88
2024/01/01 04:06:12;;;;;;;3.83;1.70;;;;;3.10;93205.00;;;;7400254;19;20161;-85
2024/01/01 04:08:46;;;;;;;6.63;1.80;;;;;3.10;93200.00;;;;7400668;19;20142;-86
2024/01/01 04:11:20;;;;;;;6.27;1.67;;;;;3.20;93189.00;;;;7399491;19;20168;-88
2024/01/01 04:13:55;;;;;;;11.60;2.10;;;;;3.30;93201.00;;;;7400613;19;20136;-86
2024/01/01 04:16:29;;;;;;;11.63;1.87;;;;;3.10;93194.00;;;;7397832;19;20133;-88
2024/01/01 04:19:03;;;;;;;7.17;1.90;;;;;3.10;93202.00;;;;7400227;19;20155;-87
2024/01/01 04:21:31;;;;;;;7.47;1.77;;;;;3.00;93195.00;;;;7399203;19;20485;-85
2024/01/01 04:24:09;;;;;;;5.20;1.63;;;;;3.00;93197.00;;;;7398987;19;20129;-85
2024/01/01 04:26:40;;;;;;;10.50;2.40;;;;;3.00;93194.00;;;;7399164;19;20152;-86
2024/01/01 04:29:17;;;;;;;6.70;1.73;;;;;3.00;93196.00;;;;7398929;19;20133;-89
2024/01/01 04:31:57;;;;;;;6.97;1.53;;;;;3.00;93197.00;;;;7395578;19;20168;-86
2024/01/01 04:34:32;;;;;;;7.90;1.40;;;;;3.00;93204.00;;;;7396856;19;20628;-90
2024/01/01 04:37:15;;;;;;;10.90;2.03;;;;;3.10;93192.00;;;;7399004;19;20492;-89
2024/01/01 04:39:57;;;;;;;6.63;2.10;;;;;3.00;93184.00;;;;7401866;19;20204;-89
2024/01/01 04:42:31;;;;;;;8.67;1.70;;;;;2.90;93191.00;;;;7401045;19;20568;-87
2024/01/01 04:45:05;;;;;;;5.73;1.97;;;;;2.60;93202.00;;;;7395140;19;20141;-86
2024/01/01 04:47:33;;;;;;;11.50;1.63;;;;;2.60;93194.00;;;;7396659;19;20200;-86
2024/01/01 04:50:09;;;;;;;9.70;1.83;;;;;2.60;93208.00;;;;7398102;19;20132;-86
2024/01/01 04:52:37;;;;;;;8.80;1.80;;;;;2.60;93199.00;;;;7398926;19;20141;-86
2024/01/01 04:55:05;;;;;;;6.07;1.50;;;;;2.50;93198.00;;;;7398712;19;20132;-86
2024/01/01 04:57:39;;;;;;;10.20;1.30;;;;;2.90;93204.00;;;;7398672;19;20623;-87
2024/01/01 05:00:07;;;;;;;2.70;1.00;;;;;2.80;93201.00;;;;7396240;19;20144;-85
2024/01/01 05:02:44;;;;;;;5.90;1.37;;;;;2.80;93205.00;;;;7397402;19;20141;-87
2024/01/01 05:05:20;;;;;;;7.23;1.73;;;;;2.90;93200.00;;;;7396837;19;20147;-88
2024/01/01 05:07:47;;;;;;;7.70;1.43;;;;;3.00;93214.00;;;;7399336;19;20526;-88
2024/01/01 05:10:22;;;;;;;10.27;1.70;;;;;2.90;93212.00;;;;7406984;19;20136;-85
2024/01/01 05:12:50;;;;;;;6.83;1.60;;;;;3.00;93222.00;;;;7402709;19;20176;-85
2024/01/01 05:15:27;;;;;;;5.53;1.47;;;;;2.90;93218.00;;;;7404717;19;20154;-85
2024/01/01 05:18:01;;;;;;;7.20;1.60;;;;;3.00;93235.00;;;;7404935;19;20612;-84
2024/01/01 05:20:35;;;;;;;8.13;1.50;;;;;3.00;93233.00;;;;7404171;19;20144;-85
2024/01/01 05:23:10;;;;;;;6.60;1.40;;;;;3.00;93217.00;;;;7405581;19;20124;-83
2024/01/01 05:25:37;;;;;;;9.40;1.47;;;;;3.00;93233.00;;;;7402672;19;20172;-84
2024/01/01 05:28:12;;;;;;;7.97;1.30;;;;;3.10;93230.00;;;;7404182;19;20461;-84
2024/01/01 05:30:40;;;;;;;5.70;1.50;;;;;3.20;93233.00;;;;7403640;19;20169;-84
2024/01/01 05:33:20;;;;;;;7.13;1.63;;;;;3.10;93226.00;;;;7405146;19;20152;-84
2024/01/01 05:35:55;;;;;;;9.27;1.80;;;;;3.20;93237.00;;;;7403966;19;20144;-84
2024/01/01 05:38:29;;;;;;;9.27;2.10;;;;;3.10;93242.00;;;;7404591;19;20502;-82
2024/01/01 05:41:03;;;;;;;8.40;1.73;;;;;3.10;93236.00;;;;7403799;19;20145;-84
2024/01/01 05:43:37;;;;;;;6.87;2.40;;;;;3.30;93247.00;;;;7405271;19;20482;-86
2024/01/01 05:46:11;;;;;;;12.40;2.20;;;;;3.30;93248.00;;;;7399459;19;20169;-84
2024/01/01 05:48:46;;;;;;;12.20;2.07;;;;;3.30;93261.00;;;;7404263;19;20137;-84
2024/01/01 05:51:20;;;;;;;8.03;2.13;;;;;3.10;93255.00;;;;7402938;19;20892;-84
2024/01/01 05:53:57;;;;;;;11.83;2.03;;;;;3.30;93249.00;;;;7403607;19;20620;-84
2024/01/01 05:56:25;;;;;;;7.43;2.00;;;;;3.10;93249.00;;;;7401813;19;20171;-84
2024/01/01 05:58:59;;;;;;;10.67;1.90;;;;;3.30;93261.00;;;;7404821;19;20587;-84
2024/01/01 06:01:27;;;;;;;8.23;1.73;;;;;3.30;93253.00;;;;7404143;19;20157;-84
2024/01/01 06:04:01;;;;;;;8.57;1.77;;;;;3.30;93261.00;;;;7403473;19;20592;-84
2024/01/01 06:06:28;;;;;;;12.60;1.83;;;;;3.10;93260.00;;;;7402400;19;20145;-84
2024/01/01 06:09:03;;;;;;;8.47;1.77;;;;;3.10;93268.00;;;;7403831;19;20232;-84
2024/01/01 06:11:37;;;;;;;6.20;1.50;;;;;3.00;93270.00;;;;7401763;19;20175;-84
2024/01/01 06:14:14;;;;;;;6.10;1.77;;;;;3.10;93263.00;;;;7403244;19;20523;-83
2024/01/01 06:16:45;;;;;;;5.07;2.00;;;;;2.90;93272.00;;;;7401853;19;20476;-83
2024/01/01 06:19:19;;;;;;;7.50;1.80;;;;;2.70;93282.00;;;;7402239;19;20470;-84
2024/01/01 06:21:47;;;;;;;8.30;1.90;;;;;2.80;93294.00;;;;7401852;19;20600;-84
2024/01/01 06:24:21;;;;;;;7.33;1.50;;;;;2.90;93288.00;;;;7401793;19;20159;-84
2024/01/01 06:26:55;;;;;;;8.70;2.17;;;;;3.20;93296.00;;;;7401028;19;20591;-84
2024/01/01 06:29:35;;;;;;;7.60;1.70;;;;;3.00;93294.00;;;;7402302;19;20129;-85
2024/01/01 06:32:16;;;;;;;14.17;2.10;;;;;3.00;93302.00;;;;7399961;19;20200;-85
2024/01/01 06:34:45;;;;;;;11.03;2.43;;;;;2.90;93295.00;;;;7401649;19;20176;-85
2024/01/01 06:37:20;;;;;;;6.00;1.23;;;;;3.00;93289.00;;;;7401412;19;20145;-86
2024/01/01 06:39:55;;;;;;;9.20;1.67;;;;;2.90;93300.00;;;;7401090;19;20588;-85
2024/01/01 06:42:22;;;;;;;5.90;1.50;;;;;3.00;93298.00;;;;7401947;19;20142;-85
2024/01/01 06:45:01;;;;;;;6.00;1.30;;;;;2.70;93301.00;;;;7396352;19;20152;-85
2024/01/01 06:47:29;;;;;;;4.57;1.40;;;;;2.80;93313.00;;;;7395328;19;20148;-85
2024/01/01 06:50:03;;;;;;;5.77;1.30;;;;;2.90;93306.00;;;;7393868;19;20176;-85
2024/01/01 06:52:31;;;;;;;3.23;1.33;;;;;2.70;93307.00;;;;7398807;19;20164;-85
2024/01/01 06:55:08;;;;;;;7.33;1.30;;;;;2.80;93305.00;;;;7404785;19;20136;-85
2024/01/01 06:57:36;;;;;;;4.80;1.30;;;;;2.70;93325.00;;;;7409670;19;20153;-85
2024/01/01 07:00:12;;;;;;;3.53;1.13;;;;;2.70;93316.00;;;;7411256;19;20144;-86
2024/01/01 07:02:39;;;;;;;3.27;1.23;;;;;2.70;93313.00;;;;7411289;19;20132;-85
2024/01/01 07:05:14;;;;;;;5.30;1.40;;;;;2.90;93322.00;;;;7414135;19;20152;-85
2024/01/01 07:07:43;;;;;;;6.20;1.10;;;;;2.70;93312.00;;;;7413147;19;20617;-85
2024/01/01 07:10:18;;;;;;;4.83;1.70;;;;;2.80;93321.00;;;;7411174;19;20173;-86
2024/01/01 07:12:49;;;;;;;7.33;1.30;;;;;2.70;93321.00;;;;7412541;19;20628;-85
2024/01/01 07:15:16;;;;;;;5.50;1.30;;;;;2.80;93322.00;;;;7412584;19;20652;-85
2024/01/01 07:17:51;;;;;;;6.27;1.57;;;;;2.70;93334.00;;;;7412272;19;20142;-85
2024/01/01 07:20:23;;;;;;;7.47;1.33;;;;;2.60;93334.00;;;;7414319;19;20557;-84
2024/01/01 07:22:57;;;;;;;2.43;0.90;;;;;2.70;93328.00;;;;7408954;19;20750;-87
2024/01/01 07:25:24;;;;;;;7.27;1.70;;;;;2.50;93321.00;;;;7407263;19;20149;-85
2024/01/01 07:27:53;;;;;;;9.13;1.57;;;;;2.50;93321.00;;;;7409546;19;20129;-85
2024/01/01 07:30:35;;;;;;;7.47;1.83;;;;;2.40;93323.00;;;;7405056;19;20172;-84
2024/01/01 07:33:09;;;;;;;7.13;1.30;;;;;2.50;93314.00;;;;7405406;19;20144;-85
2024/01/01 07:35:45;;;;;;;4.23;1.33;;;;;2.50;93326.00;;;;7405808;19;20157;-84
2024/01/01 07:38:19;;;;;;;3.77;1.10;;;;;2.50;93335.00;;;;7407788;19;20142;-84
2024/01/01 07:40:47;;;;;;;7.97;1.67;;;;;2.60;93328.00;;;;7402653;19;20145;-84
2024/01/01 07:43:22;;;;;;;6.97;1.43;;;;;2.70;93336.00;;;;7404409;19;20165;-84
2024/01/01 07:45:56;;;;;;;6.07;1.30;;;;;2.70;93335.00;;;;7407455;19;20211;-84
2024/01/01 07:48:30;;;;;;;5.63;1.27;;;;;2.70;93347.00;;;;7404469;19;20149;-83
2024/01/01 07:51:00;;;;;;;5.23;1.50;;;;;2.90;93356.00;;;;7402660;19;20169;-83
2024/01/01 07:53:34;;;;;;;6.73;1.20;;;;;2.90;93363.00;;;;7406523;19;20128;-85
2024/01/01 07:56:08;;;;;;;5.13;1.20;;;;;3.20;93355.00;;;;7405031;19;20141;-83
2024/01/01 07:58:38;;;;;;;2.63;1.10;;;;;3.10;93350.00;;;;7402524;19;20150;-85
2024/01/01 08:01:06;;;;;;;10.13;1.53;;;;;3.20;93363.00;;;;7401938;19;20148;-84
2024/01/01 08:03:40;;;;;;;3.07;1.00;;;;;3.30;93376.00;;;;7404121;19;20144;-84
2024/01/01 08:06:17;;;;;;;3.57;1.20;;;;;3.30;93374.00;;;;7403229;19;20146;-85
2024/01/01 08:08:45;;;;;;;5.00;1.03;;;;;3.40;93373.00;;;;7401315;19;20905;-84
2024/01/01 08:11:19;;;;;;;7.20;1.20;;;;;3.70;93370.00;;;;7401437;19;20220;-84
2024/01/01 08:13:47;;;;;;;9.47;1.70;;;;;3.70;93372.00;;;;7399115;19;20125;-85
2024/01/01 08:16:21;;;;;;;5.37;1.30;;;;;3.70;93374.00;;;;7400815;19;20135;-83
2024/01/01 08:18:53;;;;;;;6.23;1.30;;;;;3.70;93376.00;;;;7399207;19;20156;-83
2024/01/01 08:21:23;;;;;;;4.30;1.30;;;;;3.80;93370.00;;;;7400947;19;20144;-84
2024/01/01 08:23:57;;;;;;;2.33;0.90;;;;;3.90;93366.00;;;;7401273;19;20151;-84
2024/01/01 08:26:27;;;;;;;3.83;1.30;;;;;4.00;93368.00;;;;7402982;19;20577;-85
2024/01/01 08:29:01;;;;;;;5.83;1.33;;;;;3.80;93364.00;;;;7402612;19;20608;-83
2024/01/01 08:31:35;;;;;;;8.17;1.60;;;;;3.80;93356.00;;;;7401458;19;20236;-83
2024/01/01 08:34:10;;;;;;;5.47;1.50;;;;;3.90;93363.00;;;;7401812;19;20144;-84
2024/01/01 08:36:38;;;;;;;7.13;1.40;;;;;4.20;93368.00;;;;7394924;19;20212;-84
2024/01/01 08:39:12;;;;;;;4.63;1.27;;;;;4.50;93363.00;;;;7399324;19;20136;-84
2024/01/01 08:41:43;;;;;;;8.13;1.40;;;;;4.80;93361.00;;;;7399374;19;20655;-85
2024/01/01 08:44:18;;;;;;;4.97;1.33;;;;;4.70;93378.00;;;;7405170;19;20144;-86
2024/01/01 08:46:46;;;;;;;8.70;1.80;;;;;4.70;93368.00;;;;7410161;19;20173;-86
2024/01/01 08:49:20;;;;;;;7.00;1.70;;;;;4.70;93377.00;;;;7411598;19;20159;-84
2024/01/01 08:51:55;;;;;;;7.03;1.50;;;;;4.50;93379.00;;;;7413316;19;20132;-87
2024/01/01 08:54:29;;;;;;;6.40;1.40;;;;;4.50;93389.00;;;;7410146;19;20156;-85
2024/01/01 08:57:03;;;;;;;6.23;1.50;;;;;4.70;93392.00;;;;7411373;19;20153;-85
2024/01/01 08:59:39;;;;;;;6.30;1.40;;;;;4.50;93391.00;;;;7411088;19;20148;-86
2024/01/01 09:02:13;;;;;;;4.83;2.07;;;;;4.40;93393.00;;;;7410981;19;20625;-86
2024/01/01 09:04:53;;;;;;;4.57;1.10;;;;;4.60;93385.00;;;;7410474;19;20144;-84
2024/01/01 09:07:28;;;;;;;7.73;1.63;;;;;4.60;93389.00;;;;7411965;19;20149;-86
2024/01/01 09:10:04;;;;;;;7.43;1.23;;;;;4.70;93387.00;;;;7413003;19;20160;-85
2024/01/01 09:12:32;;;;;;;5.37;1.30;;;;;4.80;93389.00;;;;7408333;19;20168;-85
2024/01/01 09:15:06;;;;;;;7.63;1.80;;;;;5.00;93394.00;;;;7408923;19;20157;-85
2024/01/01 09:17:35;;;;;;;5.87;1.10;;;;;5.10;93401.00;;;;7408585;19;20156;-82
2024/01/01 09:20:13;;;;;;;4.63;1.43;;;;;5.00;93412.00;;;;7402248;19;20150;-84
2024/01/01 09:22:40;;;;;;;7.10;1.50;;;;;4.70;93419.00;;;;7398483;19;20165;-84
2024/01/01 09:25:20;;;;;;;5.90;1.70;;;;;4.70;93419.00;;;;7399355;19;20151;-86
2024/01/01 09:27:54;;;;;;;6.17;1.47;;;;;4.60;93411.00;;;;7407254;19;20141;-86
2024/01/01 09:30:38;;;;;;;7.47;1.27;;;;;4.60;93409.00;;;;7404543;19;20140;-88
2024/01/01 09:33:21;;;;;;;6.57;1.67;;;;;4.60;93408.00;;;;7395571;19;20623;-87
2024/01/01 09:35:56;;;;;;;7.63;1.57;;;;;4.70;93418.00;;;;7389363;19;20169;-88
2024/01/01 09:38:28;;;;;;;9.20;2.07;;;;;4.70;93409.00;;;;7392394;19;20145;-88
2024/01/01 09:41:02;;;;;;;11.33;1.67;;;;;4.90;93408.00;;;;7390740;19;20627;-87
2024/01/01 09:43:39;;;;;;;9.30;1.57;;;;;4.90;93391.00;;;;7395915;19;20139;-88
2024/01/01 09:46:17;;;;;;;6.63;1.53;;;;;5.10;93408.00;;;;7397120;19;20141;-88
2024/01/01 09:48:46;;;;;;;5.73;1.60;;;;;5.40;93390.00;;;;7394222;19;20149;-87
2024/01/01 09:51:20;;;;;;;8.00;1.80;;;;;6.00;93402.00;;;;7394525;19;20148;-86
2024/01/01 09:53:49;;;;;;;7.23;1.70;;;;;5.80;93398.00;;;;7390464;19;20163;-84
2024/01/01 09:56:23;;;;;;;11.10;1.77;;;;;5.70;93386.00;;;;7389662;19;20148;-84
2024/01/01 09:58:51;;;;;;;7.47;2.10;;;;;6.10;93385.00;;;;7393268;19;22799;-86
2024/01/01 10:01:25;;;;;;;6.67;1.30;;;;;5.90;93398.00;;;;7395784;19;20802;-87
2024/01/01 10:04:07;;;;;;;6.37;1.43;;;;;6.30;93402.00;;;;7399961;19;20149;-88
2024/01/01 10:06:53;;;;;;;8.70;1.70;;;;;5.90;93393.00;;;;7403724;19;20152;-87
2024/01/01 10:09:21;;;;;;;5.63;1.67;;;;;6.10;93394.00;;;;7398392;19;20649;-84
2024/01/01 10:12:09;;;;;;;7.63;1.77;;;;;6.20;93404.00;;;;7392778;19;20646;-83
2024/01/01 10:14:48;;;;;;;6.33;1.67;;;;;6.00;93403.00;;;;7404788;19;20140;-81
2024/01/01 10:17:23;;;;;;;7.40;1.50;;;;;6.00;93394.00;;;;7409160;19;20125;-82
2024/01/01 10:19:52;;;;;;;5.57;1.63;;;;;5.50;93393.00;;;;7415567;19;20162;-81
2024/01/01 10:22:31;;;;;;;7.33;1.83;;;;;5.50;93398.00;;;;7409423;19;20149;-83
2024/01/01 10:25:18;;;;;;;7.80;1.90;;;;;5.20;93402.00;;;;7407828;19;20149;-83
2024/01/01 10:27:59;;;;;;;8.33;1.60;;;;;5.20;93413.00;;;;7408134;19;20419;-84
2024/01/01 10:30:34;;;;;;;6.30;1.50;;;;;5.10;93413.00;;;;7403241;19;20473;-84
2024/01/01 10:33:16;;;;;;;7.10;1.63;;;;;4.90;93413.00;;;;7407233;19;20173;-83
2024/01/01 10:35:52;;;;;;;9.17;1.63;;;;;4.80;93416.00;;;;7405135;19;20143;-86
2024/01/01 10:38:27;;;;;;;14.90;2.60;;;;;4.90;93417.00;;;;7407156;19;20136;-82
2024/01/01 10:40:57;;;;;;;10.60;1.93;;;;;4.90;93413.00;;;;7410617;19;20142;-84
2024/01/01 10:43:33;;;;;;;3.87;1.37;;;;;4.80;93426.00;;;;7411943;19;20128;-84
2024/01/01 10:46:05;;;;;;;4.33;1.40;;;;;4.80;93414.00;;;;7409897;19;20152;-83
2024/01/01 10:48:43;;;;;;;7.40;1.50;;;;;4.90;93421.00;;;;7405548;19;20151;-84
2024/01/01 10:51:33;;;;;;;7.37;2.10;;;;;4.90;93417.00;;;;7403533;19;20152;-87
2024/01/01 10:54:15;;;;;;;6.73;1.57;;;;;5.00;93421.00;;;;7405196;19;20184;-84
2024/01/01 10:57:00;;;;;;;9.03;1.93;;;;;5.10;93428.00;;;;7407047;19;20240;-84
2024/01/01 10:59:46;;;;;;;8.87;1.77;;;;;4.90;93403.00;;;;7406471;19;20632;-84
2024/01/01 11:02:23;;;;;;;11.33;1.70;;;;;5.10;93413.00;;;;7415546;19;20173;-85
2024/01/01 11:05:08;;;;;;;11.67;1.80;;;;;5.20;93423.00;;;;7417789;19;20140;-85
2024/01/01 11:07:52;;;;;;;13.80;2.10;;;;;5.30;93419.00;;;;7411887;19;20141;-85
2024/01/01 11:10:44;;;;;;;10.70;2.17;;;;;5.10;93442.00;;;;7417649;19;20153;-85
2024/01/01 11:13:34;;;;;;;7.13;1.60;;;;;3.80;93454.00;;;;7418734;19;20144;-87
2024/01/01 11:16:08;;;;;;;8.97;1.97;;;;;4.20;93449.00;;;;7416163;19;20512;-85
2024/01/01 11:18:44;;;;;;;8.57;1.90;;;;;3.90;93455.00;;;;7418836;19;20148;-89
2024/01/01 11:21:28;;;;;;;8.60;1.83;;;;;3.80;93461.00;;;;7419431;19;20140;-88
2024/01/01 11:24:01;;;;;;;6.77;1.70;;;;;3.70;93456.00;;;;7413486;19;20153;-89
2024/01/01 11:26:56;;;;;;;10.27;2.00;;;;;4.00;93445.00;;;;7412217;19;20154;-88
2024/01/01 11:29:24;;;;;;;10.40;1.80;;;;;3.80;93437.00;;;;7415462;19;20200;-87
2024/01/01 11:32:08;;;;;;;6.80;2.10;;;;;3.90;93455.00;;;;7418516;19;20183;-87
2024/01/01 11:34:43;;;;;;;12.07;2.10;;;;;3.90;93459.00;;;;7418202;19;20188;-89
2024/01/01 11:37:20;;;;;;;9.73;2.17;;;;;4.00;93450.00;;;;7417179;19;20144;-88
2024/01/01 11:39:59;;;;;;;8.43;1.90;;;;;4.10;93460.00;;;;7417549;19;20148;-87
2024/01/01 11:42:35;;;;;;;9.40;1.87;;;;;4.30;93442.00;;;;7415629;19;20212;-90
2024/01/01 11:45:17;;;;;;;9.53;2.07;;;;;4.80;93447.00;;;;7420314;19;20132;-90
2024/01/01 11:47:46;;;;;;;9.37;2.00;;;;;4.90;93458.00;;;;7419593;19;20176;-91
2024/01/01 11:50:30;;;;;;;9.53;1.67;;;;;4.50;93447.00;;;;7421148;19;20180;-91
2024/01/01 11:53:00;;;;;;;5.80;1.87;;;;;5.00;93450.00;;;;7415944;19;20161;-87
2024/01/01 11:55:38;;;;;;;7.90;1.50;;;;;4.60;93439.00;;;;7417879;19;20499;-86
2024/01/01 11:58:12;;;;;;;6.03;1.43;;;;;4.70;93434.00;;;;7419978;19;20152;-86
2024/01/01 12:00:42;;;;;;;10.20;1.70;;;;;4.90;93426.00;;;;7420681;19;20152;-86
2024/01/01 12:03:22;;;;;;;7.90;1.93;;;;;5.20;93450.00;;;;7419845;19;20148;-85
2024/01/01 12:05:50;;;;;;;10.87;2.13;;;;;5.10;93436.00;;;;7420473;19;20128;-87
2024/01/01 12:08:24;;;;;;;8.17;1.53;;;;;4.70;93442.00;;;;7418085;19;20144;-87
2024/01/01 12:11:00;;;;;;;13.47;1.90;;;;;4.90;93442.00;;;;7416676;19;20183;-82
2024/01/01 12:13:35;;;;;;;9.97;1.93;;;;;5.10;93427.00;;;;7409871;19;20141;-84
2024/01/01 12:16:16;;;;;;;6.70;1.50;;;;;5.10;93447.00;;;;7410784;19;20128;-85
2024/01/01 12:19:04;;;;;;;8.30;1.53;;;;;4.90;93436.00;;;;7405796;19;20158;-83
2024/01/01 12:21:44;;;;;;;7.27;1.70;;;;;5.00;93442.00;;;;7398981;19;20145;-80
2024/01/01 12:24:22;;;;;;;9.60;1.90;;;;;4.90;93439.00;;;;7392410;19;20506;-79
2024/01/01 12:27:01;;;;;;;15.80;2.17;;;;;5.10;93431.00;;;;7392409;19;20128;-79
2024/01/01 12:29:32;;;;;;;6.17;1.63;;;;;5.20;93436.00;;;;7394404;19;20153;-80
2024/01/01 12:32:16;;;;;;;7.33;1.93;;;;;5.10;93433.00;;;;7393885;19;20635;-81
2024/01/01 12:34:51;;;;;;;6.30;2.67;;;;;5.20;93429.00;;;;7400618;19;20141;-82
2024/01/01 12:37:19;;;;;;;14.03;2.50;;;;;5.10;93436.00;;;;7401207;19;20141;-80
2024/01/01 12:39:54;;;;;;;10.73;2.13;;;;;5.00;93430.00;;;;7399618;19;20148;-80
2024/01/01 12:42:21;;;;;;;6.00;1.73;;;;;5.20;93422.00;;;;7398874;19;20133;-81
2024/01/01 12:44:56;;;;;;;10.93;1.63;;;;;5.10;93424.00;;;;7399250;19;20180;-81
2024/01/01 12:47:31;;;;;;;10.30;2.13;;;;;5.20;93409.00;;;;7400912;19;20610;-80
2024/01/01 12:49:59;;;;;;;19.33;2.07;;;;;5.30;93414.00;;;;7400148;19;20153;-82
2024/01/01 12:52:38;;;;;;;8.77;1.90;;;;;5.30;93407.00;;;;7394983;19;20149;-82
2024/01/01 12:55:12;;;;;;;11.47;2.00;;;;;5.10;93416.00;;;;7390280;19;20169;-80
2024/01/01 12:57:47;;;;;;;7.90;1.93;;;;;5.00;93409.00;;;;7389895;19;20166;-81
2024/01/01 13:00:17;;;;;;;6.00;1.93;;;;;5.20;93401.00;;;;7389792;19;20204;-82